sensor_id;sensor_type;location;lat;lon;timestamp;P1;durP1;ratioP1;P2;durP2;ratioP2
26582;SDS011;14230;45.382;10.998;2022-11-15T00:01:51;74.38;;;40.53;;
26582;SDS011;14230;45.382;10.998;2022-11-15T00:04:37;72.75;;;38.78;;
26582;SDS011;14230;45.382;10.998;2022-11-15T00:07:23;74.30;;;39.85;;
26582;SDS011;14230;45.382;10.998;2022-11-15T00:10:29;63.58;;;37.80;;
26582;SDS011;14230;45.382;10.998;2022-11-15T00:13:15;59.85;;;35.70;;
26582;SDS011;14230;45.382;10.998;2022-11-15T00:16:01;71.60;;;38.65;;
26582;SDS011;14230;45.382;10.998;2022-11-15T00:18:49;72.88;;;38.17;;
26582;SDS011;14230;45.382;10.998;2022-11-15T00:21:36;67.93;;;36.85;;
26582;SDS011;14230;45.382;10.998;2022-11-15T00:24:22;69.68;;;38.13;;
26582;SDS011;14230;45.382;10.998;2022-11-15T00:27:08;63.72;;;37.20;;
26582;SDS011;14230;45.382;10.998;2022-11-15T00:29:54;67.70;;;36.33;;
26582;SDS011;14230;45.382;10.998;2022-11-15T00:32:40;62.13;;;35.88;;
26582;SDS011;14230;45.382;10.998;2022-11-15T00:35:26;68.28;;;36.75;;
26582;SDS011;14230;45.382;10.998;2022-11-15T00:38:12;63.63;;;35.92;;
26582;SDS011;14230;45.382;10.998;2022-11-15T00:40:58;62.33;;;35.28;;
26582;SDS011;14230;45.382;10.998;2022-11-15T00:43:50;68.97;;;36.88;;
26582;SDS011;14230;45.382;10.998;2022-11-15T00:46:37;70.25;;;35.05;;
26582;SDS011;14230;45.382;10.998;2022-11-15T00:49:23;64.10;;;37.17;;
26582;SDS011;14230;45.382;10.998;2022-11-15T00:52:09;62.70;;;33.85;;
26582;SDS011;14230;45.382;10.998;2022-11-15T00:54:55;60.60;;;36.42;;
26582;SDS011;14230;45.382;10.998;2022-11-15T00:57:41;64.40;;;35.13;;
26582;SDS011;14230;45.382;10.998;2022-11-15T01:00:27;59.45;;;34.03;;
26582;SDS011;14230;45.382;10.998;2022-11-15T01:03:13;62.13;;;35.50;;
26582;SDS011;14230;45.382;10.998;2022-11-15T01:05:59;62.33;;;35.22;;
26582;SDS011;14230;45.382;10.998;2022-11-15T01:08:45;60.95;;;35.38;;
26582;SDS011;14230;45.382;10.998;2022-11-15T01:11:31;72.72;;;34.38;;
26582;SDS011;14230;45.382;10.998;2022-11-15T01:14:18;56.58;;;34.22;;
26582;SDS011;14230;45.382;10.998;2022-11-15T01:17:09;66.13;;;33.78;;
26582;SDS011;14230;45.382;10.998;2022-11-15T01:19:55;54.47;;;31.20;;
26582;SDS011;14230;45.382;10.998;2022-11-15T01:22:41;60.80;;;33.47;;
26582;SDS011;14230;45.382;10.998;2022-11-15T01:25:27;53.33;;;33.10;;
26582;SDS011;14230;45.382;10.998;2022-11-15T01:28:13;61.83;;;33.08;;
26582;SDS011;14230;45.382;10.998;2022-11-15T01:31:03;58.22;;;32.78;;
26582;SDS011;14230;45.382;10.998;2022-11-15T01:33:51;43.37;;;26.07;;
26582;SDS011;14230;45.382;10.998;2022-11-15T01:36:37;54.45;;;31.92;;
26582;SDS011;14230;45.382;10.998;2022-11-15T01:39:22;54.10;;;31.00;;
26582;SDS011;14230;45.382;10.998;2022-11-15T01:42:12;54.15;;;31.83;;
26582;SDS011;14230;45.382;10.998;2022-11-15T01:44:58;53.35;;;31.73;;
26582;SDS011;14230;45.382;10.998;2022-11-15T01:47:48;49.85;;;30.60;;
26582;SDS011;14230;45.382;10.998;2022-11-15T01:50:39;52.08;;;31.15;;
26582;SDS011;14230;45.382;10.998;2022-11-15T01:53:28;56.55;;;30.30;;
26582;SDS011;14230;45.382;10.998;2022-11-15T01:56:17;50.25;;;29.20;;
26582;SDS011;14230;45.382;10.998;2022-11-15T01:59:05;56.65;;;30.02;;
26582;SDS011;14230;45.382;10.998;2022-11-15T02:01:53;50.45;;;30.02;;
26582;SDS011;14230;45.382;10.998;2022-11-15T02:04:43;46.50;;;28.90;;
26582;SDS011;14230;45.382;10.998;2022-11-15T02:07:31;44.97;;;27.50;;
26582;SDS011;14230;45.382;10.998;2022-11-15T02:10:19;44.13;;;25.73;;
26582;SDS011;14230;45.382;10.998;2022-11-15T02:13:07;45.92;;;27.83;;
26582;SDS011;14230;45.382;10.998;2022-11-15T02:21:45;44.45;;;27.48;;
26582;SDS011;14230;45.382;10.998;2022-11-15T02:35:00;46.00;;;26.60;;
26582;SDS011;14230;45.382;10.998;2022-11-15T02:37:56;43.05;;;25.38;;
26582;SDS011;14230;45.382;10.998;2022-11-15T02:44:03;48.38;;;26.50;;
26582;SDS011;14230;45.382;10.998;2022-11-15T02:47:03;53.05;;;29.75;;
26582;SDS011;14230;45.382;10.998;2022-11-15T02:49:59;48.47;;;29.00;;
26582;SDS011;14230;45.382;10.998;2022-11-15T02:52:50;52.42;;;29.05;;
26582;SDS011;14230;45.382;10.998;2022-11-15T02:55:38;48.63;;;29.38;;
26582;SDS011;14230;45.382;10.998;2022-11-15T02:58:48;55.90;;;31.53;;
26582;SDS011;14230;45.382;10.998;2022-11-15T03:20:01;62.25;;;34.47;;
26582;SDS011;14230;45.382;10.998;2022-11-15T03:22:51;62.70;;;35.28;;
26582;SDS011;14230;45.382;10.998;2022-11-15T03:25:41;65.88;;;35.33;;
26582;SDS011;14230;45.382;10.998;2022-11-15T03:28:34;61.55;;;33.70;;
26582;SDS011;14230;45.382;10.998;2022-11-15T03:31:36;60.85;;;34.08;;
26582;SDS011;14230;45.382;10.998;2022-11-15T03:37:30;62.77;;;34.00;;
26582;SDS011;14230;45.382;10.998;2022-11-15T03:40:21;59.95;;;33.90;;
26582;SDS011;14230;45.382;10.998;2022-11-15T03:43:35;60.08;;;33.13;;
26582;SDS011;14230;45.382;10.998;2022-11-15T03:46:32;62.03;;;33.85;;
26582;SDS011;14230;45.382;10.998;2022-11-15T03:49:32;61.22;;;33.50;;
26582;SDS011;14230;45.382;10.998;2022-11-15T03:52:20;56.47;;;31.67;;
26582;SDS011;14230;45.382;10.998;2022-11-15T03:55:08;53.50;;;29.38;;
26582;SDS011;14230;45.382;10.998;2022-11-15T03:57:56;54.65;;;29.35;;
26582;SDS011;14230;45.382;10.998;2022-11-15T04:00:44;48.83;;;28.05;;
26582;SDS011;14230;45.382;10.998;2022-11-15T04:03:31;49.22;;;27.83;;
26582;SDS011;14230;45.382;10.998;2022-11-15T04:06:17;53.35;;;28.65;;
26582;SDS011;14230;45.382;10.998;2022-11-15T04:09:03;54.17;;;29.27;;
26582;SDS011;14230;45.382;10.998;2022-11-15T04:11:49;49.15;;;29.52;;
26582;SDS011;14230;45.382;10.998;2022-11-15T04:14:35;49.90;;;28.70;;
26582;SDS011;14230;45.382;10.998;2022-11-15T04:17:21;47.40;;;28.45;;
26582;SDS011;14230;45.382;10.998;2022-11-15T04:20:08;43.10;;;26.35;;
26582;SDS011;14230;45.382;10.998;2022-11-15T04:23:39;50.10;;;28.27;;
26582;SDS011;14230;45.382;10.998;2022-11-15T04:26:44;44.28;;;28.20;;
26582;SDS011;14230;45.382;10.998;2022-11-15T04:29:29;45.20;;;27.27;;
26582;SDS011;14230;45.382;10.998;2022-11-15T04:32:21;47.53;;;27.83;;
26582;SDS011;14230;45.382;10.998;2022-11-15T04:35:07;56.90;;;27.75;;
26582;SDS011;14230;45.382;10.998;2022-11-15T04:37:54;51.03;;;29.42;;
26582;SDS011;14230;45.382;10.998;2022-11-15T04:40:40;52.85;;;30.05;;
26582;SDS011;14230;45.382;10.998;2022-11-15T04:43:26;55.33;;;29.60;;
26582;SDS011;14230;45.382;10.998;2022-11-15T04:46:13;50.55;;;30.17;;
26582;SDS011;14230;45.382;10.998;2022-11-15T04:48:59;47.88;;;28.17;;
26582;SDS011;14230;45.382;10.998;2022-11-15T04:51:45;55.38;;;29.27;;
26582;SDS011;14230;45.382;10.998;2022-11-15T04:54:30;48.75;;;29.27;;
26582;SDS011;14230;45.382;10.998;2022-11-15T04:57:16;50.03;;;29.02;;
26582;SDS011;14230;45.382;10.998;2022-11-15T05:00:06;52.55;;;30.63;;
